createdAt,value
2019-03-13T00:00:54.031Z,3.63
2019-03-13T00:03:24.032Z,3.97
2019-03-13T00:05:53.847Z,3.30
2019-03-13T00:08:24.163Z,4.03
2019-03-13T00:10:54.247Z,3.77
2019-03-13T00:13:24.547Z,4.03
2019-03-13T00:15:54.458Z,4.30
2019-03-13T00:18:24.264Z,4.70
2019-03-13T00:20:54.123Z,4.10
2019-03-13T00:23:23.922Z,3.97
2019-03-13T00:25:53.600Z,5.27
2019-03-13T00:28:23.321Z,4.93
2019-03-13T00:30:53.136Z,5.10
2019-03-13T00:33:23.155Z,4.97
2019-03-13T00:35:52.881Z,5.17
2019-03-13T00:38:22.683Z,4.90
2019-03-13T00:40:52.682Z,5.37
2019-03-13T00:43:22.542Z,5.03
2019-03-13T00:45:52.531Z,5.07
2019-03-13T00:48:22.370Z,6.40
2019-03-13T00:50:52.321Z,5.60
2019-03-13T00:53:22.065Z,6.00
2019-03-13T00:55:51.896Z,5.80
2019-03-13T00:58:21.767Z,5.87
2019-03-13T01:01:16.712Z,5.83
2019-03-13T01:03:57.012Z,5.73
2019-03-13T01:06:29.671Z,5.63
2019-03-13T01:08:59.467Z,5.63
2019-03-13T01:11:30.241Z,5.90
2019-03-13T01:14:00.020Z,4.87
2019-03-13T01:16:30.020Z,5.30
2019-03-13T01:18:59.902Z,5.33
2019-03-13T01:21:29.767Z,4.33
2019-03-13T01:23:59.662Z,4.90
2019-03-13T01:26:29.459Z,4.67
2019-03-13T01:28:59.195Z,4.83
2019-03-13T01:32:06.375Z,4.67
2019-03-13T01:34:45.841Z,4.37
2019-03-13T01:37:15.955Z,4.47
2019-03-13T01:39:45.877Z,4.70
2019-03-13T01:42:15.791Z,4.93
2019-03-13T01:44:45.650Z,5.20
2019-03-13T01:47:15.527Z,5.07
2019-03-13T01:49:45.399Z,6.33
2019-03-13T01:52:15.218Z,4.93
2019-03-13T01:54:44.950Z,6.13
2019-03-13T01:57:14.991Z,6.00
2019-03-13T01:59:44.731Z,5.93
2019-03-13T02:02:14.621Z,6.57
2019-03-13T02:04:44.334Z,7.37
2019-03-13T02:07:14.300Z,6.77
2019-03-13T02:09:44.048Z,7.03
2019-03-13T02:12:16.117Z,8.07
2019-03-13T02:14:46.088Z,6.97
2019-03-13T02:17:15.864Z,7.03
2019-03-13T02:19:45.765Z,7.93
2019-03-13T02:22:15.636Z,7.90
2019-03-13T02:24:45.486Z,8.53
2019-03-13T02:27:15.428Z,8.57
2019-03-13T02:29:45.281Z,8.13
2019-03-13T02:32:15.057Z,8.97
2019-03-13T02:34:44.762Z,9.00
2019-03-13T02:37:14.744Z,8.77
2019-03-13T02:39:44.603Z,9.73
2019-03-13T02:42:14.340Z,9.13
2019-03-13T02:44:44.298Z,9.03
2019-03-13T02:47:18.381Z,9.43
2019-03-13T02:49:45.518Z,9.23
2019-03-13T02:52:15.464Z,10.03
2019-03-13T02:54:45.137Z,9.80
2019-03-13T02:57:14.862Z,10.77
2019-03-13T02:59:44.732Z,10.03
2019-03-13T03:02:23.065Z,11.27
2019-03-13T03:04:53.060Z,11.17
2019-03-13T03:07:22.723Z,10.90
2019-03-13T03:09:52.526Z,11.43
2019-03-13T03:12:22.392Z,11.77
2019-03-13T03:15:10.069Z,10.50
2019-03-13T03:17:39.935Z,10.80
2019-03-13T03:20:12.762Z,11.47
2019-03-13T03:22:42.483Z,10.30
2019-03-13T03:25:12.906Z,10.43
2019-03-13T03:27:42.939Z,12.63
2019-03-13T03:30:19.516Z,10.60
2019-03-13T03:32:49.386Z,11.90
2019-03-13T03:35:19.223Z,8.93
2019-03-13T03:37:49.152Z,12.30
2019-03-13T03:40:22.478Z,10.13
2019-03-13T03:42:50.736Z,11.43
2019-03-13T03:45:21.018Z,11.47
2019-03-13T03:47:50.924Z,12.07
2019-03-13T03:50:20.671Z,11.07
2019-03-13T03:52:50.293Z,11.73
2019-03-13T03:55:20.291Z,12.47
2019-03-13T03:57:49.915Z,11.00
2019-03-13T04:00:19.928Z,14.07
2019-03-13T04:02:49.821Z,14.17
2019-03-13T04:05:20.154Z,12.90
2019-03-13T04:07:49.794Z,12.80
2019-03-13T04:10:19.616Z,13.77
2019-03-13T04:12:49.648Z,14.20
2019-03-13T04:15:19.444Z,14.43
2019-03-13T04:17:49.387Z,15.20
2019-03-13T04:20:20.641Z,13.93
2019-03-13T04:22:50.386Z,13.73
2019-03-13T04:25:35.219Z,13.77
2019-03-13T04:28:05.801Z,13.70
2019-03-13T04:30:35.839Z,14.27
2019-03-13T04:33:05.651Z,13.43
2019-03-13T04:35:35.645Z,13.57
2019-03-13T04:38:05.377Z,12.97
2019-03-13T04:40:35.101Z,12.00
2019-03-13T04:43:05.026Z,11.63
2019-03-13T04:45:34.846Z,11.67
2019-03-13T04:48:05.017Z,12.97
2019-03-13T04:50:34.676Z,11.97
2019-03-13T04:53:04.595Z,14.00
2019-03-13T04:55:34.316Z,13.43
2019-03-13T04:58:04.118Z,12.83
2019-03-13T05:00:33.970Z,12.47
2019-03-13T05:03:03.753Z,13.07
2019-03-13T05:05:54.049Z,13.23
2019-03-13T05:08:45.355Z,12.13
2019-03-13T05:11:13.900Z,13.10
2019-03-13T05:13:43.748Z,13.80
2019-03-13T05:16:13.557Z,13.47
2019-03-13T05:18:43.534Z,14.30
2019-03-13T05:21:13.387Z,12.37
2019-03-13T05:23:43.333Z,13.57
2019-03-13T05:26:14.483Z,11.47
2019-03-13T05:28:44.371Z,12.33
2019-03-13T05:31:14.348Z,12.50
2019-03-13T05:33:44.106Z,11.70
2019-03-13T05:36:16.744Z,10.60
2019-03-13T05:38:45.776Z,11.37
2019-03-13T05:41:15.588Z,10.93
2019-03-13T05:43:45.301Z,10.97
2019-03-13T05:46:15.107Z,11.50
2019-03-13T05:48:44.760Z,9.83
2019-03-13T05:51:14.557Z,11.47
2019-03-13T05:53:44.445Z,10.80
2019-03-13T05:56:14.215Z,11.53
2019-03-13T05:58:44.101Z,10.27
2019-03-13T06:01:14.165Z,12.17
2019-03-13T06:03:43.947Z,12.20
2019-03-13T06:06:13.985Z,11.50
2019-03-13T06:08:43.731Z,12.57
2019-03-13T06:11:13.481Z,13.13
2019-03-13T06:13:43.305Z,12.07
2019-03-13T06:16:13.173Z,12.43
2019-03-13T06:18:42.980Z,12.67
2019-03-13T06:21:12.960Z,11.17
2019-03-13T06:23:42.851Z,12.93
2019-03-13T06:26:12.617Z,13.63
2019-03-13T06:28:42.490Z,11.93
2019-03-13T06:31:12.569Z,11.10
2019-03-13T06:33:42.386Z,12.80
2019-03-13T06:36:12.332Z,12.80
2019-03-13T06:38:42.260Z,13.60
2019-03-13T06:41:12.046Z,11.57
2019-03-13T06:43:41.891Z,10.53
2019-03-13T06:46:11.616Z,12.73
2019-03-13T06:48:41.365Z,12.93
2019-03-13T06:51:11.145Z,11.70
2019-03-13T06:53:41.086Z,13.87
2019-03-13T06:56:10.943Z,13.60
2019-03-13T06:58:55.779Z,12.90
2019-03-13T07:01:32.648Z,13.20
2019-03-13T07:04:30.720Z,13.67
2019-03-13T07:07:25.252Z,14.10
2019-03-13T07:10:03.625Z,12.23
2019-03-13T07:13:03.902Z,12.67
2019-03-13T07:15:58.680Z,12.83
2019-03-13T07:18:45.869Z,12.73
2019-03-13T07:21:43.696Z,13.17
2019-03-13T07:24:35.171Z,14.20
2019-03-13T07:27:22.665Z,14.07
2019-03-13T07:30:09.802Z,14.40
2019-03-13T07:33:01.620Z,14.27
2019-03-13T07:35:49.086Z,13.77
2019-03-13T07:38:40.881Z,14.17
2019-03-13T07:41:30.888Z,14.77
2019-03-13T07:44:21.026Z,12.57
2019-03-13T07:47:24.735Z,13.70
2019-03-13T07:50:09.345Z,14.30
2019-03-13T07:53:13.406Z,13.57
2019-03-13T07:55:50.641Z,13.37
2019-03-13T07:58:48.285Z,12.03
2019-03-13T08:01:43.905Z,12.40
2019-03-13T08:04:24.826Z,13.17
2019-03-13T08:07:12.126Z,13.10
2019-03-13T08:10:03.652Z,13.13
2019-03-13T08:13:04.498Z,12.07
2019-03-13T08:15:54.014Z,13.27
2019-03-13T08:18:41.399Z,14.37
2019-03-13T08:21:38.952Z,11.83
2019-03-13T08:24:29.043Z,17.37
2019-03-13T08:27:16.841Z,13.93
2019-03-13T08:29:57.235Z,13.30
2019-03-13T08:32:45.313Z,12.83
2019-03-13T08:35:30.472Z,13.97
2019-03-13T08:38:19.159Z,13.10
2019-03-13T08:41:01.845Z,14.77
2019-03-13T08:43:51.707Z,17.57
2019-03-13T08:46:32.426Z,13.23
2019-03-13T08:49:18.558Z,15.17
2019-03-13T08:51:58.285Z,12.60
2019-03-13T08:54:41.557Z,13.93
2019-03-13T08:57:24.014Z,12.63
2019-03-13T09:00:22.114Z,13.43
2019-03-13T09:03:01.183Z,13.97
2019-03-13T09:05:52.722Z,12.33
2019-03-13T09:08:56.501Z,13.47
2019-03-13T09:11:48.515Z,23.33
2019-03-13T09:14:29.686Z,12.33
2019-03-13T09:17:18.442Z,11.73
2019-03-13T09:20:13.327Z,13.53
2019-03-13T09:22:49.260Z,12.87
2019-03-13T09:25:38.022Z,15.17
2019-03-13T09:28:45.936Z,15.10
2019-03-13T09:31:25.646Z,13.50
2019-03-13T09:34:17.619Z,16.50
2019-03-13T09:36:57.489Z,13.03
2019-03-13T09:39:35.534Z,13.73
2019-03-13T09:42:14.290Z,14.67
2019-03-13T09:45:03.043Z,13.07
2019-03-13T09:47:57.946Z,14.70
2019-03-13T09:50:36.146Z,16.40
2019-03-13T09:53:13.384Z,13.73
2019-03-13T09:55:52.343Z,15.50
2019-03-13T09:58:44.118Z,14.80
2019-03-13T10:01:25.999Z,13.20
2019-03-13T10:04:20.477Z,13.77
2019-03-13T10:07:12.617Z,14.13
2019-03-13T10:10:10.674Z,12.10
2019-03-13T10:13:02.439Z,11.67
2019-03-13T10:15:51.286Z,12.77
2019-03-13T10:18:40.008Z,12.83
2019-03-13T10:21:31.628Z,12.00
2019-03-13T10:24:26.413Z,11.33
2019-03-13T10:27:24.477Z,10.70
2019-03-13T10:30:08.189Z,11.10
2019-03-13T10:32:47.423Z,10.83
2019-03-13T10:35:39.061Z,11.10
2019-03-13T10:38:37.051Z,11.83
2019-03-13T10:41:28.608Z,13.47
2019-03-13T10:44:09.002Z,15.67
2019-03-13T10:47:12.741Z,11.77
2019-03-13T10:49:51.218Z,14.67
2019-03-13T10:52:39.760Z,11.90
2019-03-13T10:55:38.199Z,12.20
2019-03-13T10:58:26.674Z,11.90
2019-03-13T11:01:18.388Z,11.33
2019-03-13T11:04:07.769Z,11.03
2019-03-13T11:06:54.887Z,11.03
2019-03-13T11:09:34.433Z,10.87
2019-03-13T11:12:32.084Z,11.13
2019-03-13T11:15:20.773Z,11.30
2019-03-13T11:18:00.046Z,10.37
2019-03-13T11:20:48.737Z,10.63
2019-03-13T11:23:37.566Z,10.13
2019-03-13T11:26:32.504Z,10.23
2019-03-13T11:29:21.236Z,10.73
2019-03-13T11:32:28.185Z,10.43
2019-03-13T11:35:15.661Z,9.77
2019-03-13T11:38:07.174Z,10.23
2019-03-13T11:40:58.770Z,9.30
2019-03-13T11:44:05.821Z,10.17
2019-03-13T11:46:44.443Z,8.83
2019-03-13T11:49:31.650Z,9.77
2019-03-13T11:52:23.436Z,10.13
2019-03-13T11:55:12.098Z,9.70
2019-03-13T11:58:00.728Z,9.77
2019-03-13T12:00:46.674Z,9.50
2019-03-13T12:03:35.278Z,9.30
2019-03-13T12:06:29.945Z,9.80
2019-03-13T12:09:09.309Z,9.43
2019-03-13T12:12:02.567Z,8.53
2019-03-13T12:14:57.123Z,9.87
2019-03-13T12:17:40.552Z,10.37
2019-03-13T12:20:32.408Z,9.40
2019-03-13T12:23:37.771Z,9.60
2019-03-13T12:26:43.280Z,9.37
2019-03-13T12:29:30.372Z,9.80
2019-03-13T12:32:08.705Z,9.47
2019-03-13T12:34:57.230Z,9.10
2019-03-13T12:37:52.200Z,8.90
2019-03-13T12:40:39.690Z,9.30
2019-03-13T12:43:29.624Z,8.73
2019-03-13T12:46:30.681Z,9.23
2019-03-13T12:49:08.066Z,8.07
2019-03-13T12:51:59.601Z,7.93
2019-03-13T12:54:51.416Z,9.43
2019-03-13T12:57:58.601Z,9.13
2019-03-13T13:00:36.079Z,8.53
2019-03-13T13:03:25.049Z,8.63
2019-03-13T13:06:19.461Z,8.53
2019-03-13T13:09:07.160Z,8.83
2019-03-13T13:11:45.728Z,8.90
2019-03-13T13:14:52.267Z,8.40
2019-03-13T13:17:34.311Z,8.17
2019-03-13T13:20:05.658Z,9.80
2019-03-13T13:22:35.472Z,8.63
2019-03-13T13:25:06.387Z,9.27
2019-03-13T13:27:36.176Z,8.70
2019-03-13T13:30:06.720Z,8.40
2019-03-13T13:32:37.849Z,8.70
2019-03-13T13:35:09.176Z,9.03
2019-03-13T13:37:39.090Z,9.17
2019-03-13T13:40:10.606Z,8.57
2019-03-13T13:42:40.410Z,9.03
2019-03-13T13:45:33.009Z,8.37
2019-03-13T13:48:03.015Z,8.03
2019-03-13T13:50:32.934Z,8.67
2019-03-13T13:53:02.938Z,9.33
2019-03-13T13:55:32.855Z,8.67
2019-03-13T13:58:02.761Z,8.27
2019-03-13T14:00:32.782Z,8.60
2019-03-13T14:03:02.906Z,8.33
2019-03-13T14:06:06.349Z,8.63
2019-03-13T14:09:05.047Z,7.90
2019-03-13T14:12:16.082Z,8.27
2019-03-13T14:14:58.550Z,8.93
2019-03-13T14:17:35.675Z,9.53
2019-03-13T14:20:44.685Z,8.57
2019-03-13T14:23:42.615Z,8.43
2019-03-13T14:26:50.466Z,8.53
2019-03-13T14:34:02.181Z,8.10
2019-03-13T14:36:29.913Z,8.10
2019-03-13T14:39:22.692Z,7.90
2019-03-13T14:45:49.186Z,7.27
2019-03-13T14:49:08.179Z,7.87
2019-03-13T14:51:46.929Z,8.17
2019-03-13T14:55:16.229Z,8.93
2019-03-13T14:58:13.093Z,9.07
2019-03-13T15:01:19.845Z,9.80
2019-03-13T15:08:09.553Z,8.47
2019-03-13T15:11:00.204Z,8.30
2019-03-13T15:14:24.801Z,7.70
2019-03-13T15:17:43.290Z,9.43
2019-03-13T15:20:47.392Z,8.37
2019-03-13T15:23:26.710Z,9.17
2019-03-13T15:26:32.190Z,8.13
2019-03-13T15:29:22.424Z,9.40
2019-03-13T15:32:09.020Z,8.17
2019-03-13T15:38:27.701Z,9.33
2019-03-13T15:41:29.688Z,8.43
2019-03-13T15:44:38.876Z,9.60
2019-03-13T15:48:12.929Z,9.30
2019-03-13T15:50:23.533Z,9.60
2019-03-13T15:53:38.702Z,10.17
2019-03-13T15:56:53.851Z,9.73
2019-03-13T15:59:51.100Z,9.70
2019-03-13T16:02:30.370Z,9.90
2019-03-13T16:05:24.618Z,10.70
2019-03-13T16:08:13.366Z,11.10
2019-03-13T16:11:28.712Z,11.23
2019-03-13T16:14:17.818Z,11.10
2019-03-13T16:17:10.211Z,10.67
2019-03-13T16:19:56.714Z,12.70
2019-03-13T16:22:43.812Z,11.80
2019-03-13T16:25:29.137Z,11.03
2019-03-13T16:28:37.627Z,11.03
2019-03-13T16:31:26.441Z,11.70
2019-03-13T16:34:19.651Z,12.30
2019-03-13T16:37:29.591Z,13.20
2019-03-13T16:40:16.162Z,11.30
2019-03-13T16:43:17.767Z,11.93
2019-03-13T16:46:16.996Z,11.23
2019-03-13T16:49:20.684Z,13.97
2019-03-13T16:52:15.827Z,10.80
2019-03-13T16:55:19.073Z,11.50
2019-03-13T16:57:54.910Z,11.43
2019-03-13T17:01:10.504Z,10.50
2019-03-13T17:04:03.127Z,15.03
2019-03-13T17:10:39.047Z,13.07
2019-03-13T17:13:13.216Z,14.47
2019-03-13T17:19:24.154Z,12.43
2019-03-13T17:22:28.896Z,14.87
2019-03-13T17:25:19.083Z,12.67
2019-03-13T17:28:05.315Z,12.87
2019-03-13T17:30:59.330Z,13.23
2019-03-13T17:33:44.228Z,13.30
2019-03-13T17:36:45.097Z,12.67
2019-03-13T17:39:56.436Z,12.73
2019-03-13T17:46:13.290Z,12.63
2019-03-13T17:49:00.150Z,11.20
2019-03-13T17:52:17.940Z,12.37
2019-03-13T17:55:04.333Z,12.53
2019-03-13T17:58:04.451Z,13.03
2019-03-13T18:01:01.392Z,11.83
2019-03-13T18:07:24.248Z,11.50
2019-03-13T18:10:42.994Z,11.30
2019-03-13T18:13:42.444Z,10.20
2019-03-13T18:16:45.070Z,11.60
2019-03-13T18:22:51.673Z,10.80
2019-03-13T18:25:41.635Z,11.90
2019-03-13T18:28:11.544Z,13.07
2019-03-13T18:30:41.399Z,11.10
2019-03-13T18:33:11.448Z,12.13
2019-03-13T18:35:41.448Z,12.00
2019-03-13T18:38:12.434Z,12.27
2019-03-13T18:40:42.191Z,11.83
2019-03-13T18:43:12.568Z,12.83
2019-03-13T18:45:42.583Z,11.87
2019-03-13T18:48:12.480Z,11.83
2019-03-13T18:50:42.590Z,12.30
2019-03-13T18:53:12.546Z,12.67
2019-03-13T18:55:43.011Z,10.97
2019-03-13T18:58:14.306Z,11.90
2019-03-13T19:00:44.225Z,12.17
2019-03-13T19:03:14.073Z,12.07
2019-03-13T19:05:44.125Z,11.93
2019-03-13T19:08:14.689Z,12.60
2019-03-13T19:10:44.743Z,11.50
2019-03-13T19:13:14.784Z,10.93
2019-03-13T19:15:45.064Z,11.47
2019-03-13T19:18:15.102Z,12.10
2019-03-13T19:20:44.922Z,12.63
2019-03-13T19:23:14.846Z,11.80
2019-03-13T19:25:44.699Z,10.97
2019-03-13T19:28:14.589Z,10.53
2019-03-13T19:30:44.329Z,11.30
2019-03-13T19:33:14.764Z,11.00
2019-03-13T19:35:44.542Z,10.40
2019-03-13T19:38:14.933Z,10.57
2019-03-13T19:40:44.915Z,10.63
2019-03-13T19:43:16.042Z,10.37
2019-03-13T19:45:45.999Z,10.17
2019-03-13T19:48:15.942Z,11.70
2019-03-13T19:50:47.012Z,11.27
2019-03-13T19:53:17.251Z,11.50
2019-03-13T19:55:46.983Z,11.23
2019-03-13T19:58:16.979Z,10.57
2019-03-13T20:00:47.009Z,11.87
2019-03-13T20:03:16.834Z,11.17
2019-03-13T20:05:46.975Z,10.63
2019-03-13T20:08:17.095Z,11.00
2019-03-13T20:10:46.801Z,12.13
2019-03-13T20:13:16.795Z,11.37
2019-03-13T20:15:47.890Z,9.93
2019-03-13T20:18:17.876Z,10.03
2019-03-13T20:20:47.968Z,10.83
2019-03-13T20:23:17.787Z,12.23
2019-03-13T20:25:47.778Z,12.13
2019-03-13T20:28:17.498Z,11.60
2019-03-13T20:30:47.176Z,9.73
2019-03-13T20:33:17.668Z,10.90
2019-03-13T20:35:47.926Z,10.93
2019-03-13T20:38:19.225Z,11.67
2019-03-13T20:40:49.307Z,10.73
2019-03-13T20:43:19.232Z,11.77
2019-03-13T20:45:49.608Z,11.20
2019-03-13T20:48:19.333Z,12.10
2019-03-13T20:50:49.268Z,11.57
2019-03-13T20:53:20.357Z,11.33
2019-03-13T20:55:50.226Z,12.40
2019-03-13T20:58:20.020Z,12.20
2019-03-13T21:00:51.107Z,11.30
2019-03-13T21:03:20.983Z,9.50
2019-03-13T21:05:50.959Z,11.43
2019-03-13T21:08:20.658Z,11.03
2019-03-13T21:10:50.535Z,11.03
2019-03-13T21:13:20.347Z,11.73
2019-03-13T21:15:50.322Z,9.97
2019-03-13T21:18:20.087Z,12.30
2019-03-13T21:20:49.889Z,11.07
2019-03-13T21:23:19.987Z,10.70
2019-03-13T21:25:49.776Z,10.90
2019-03-13T21:28:19.687Z,11.20
2019-03-13T21:30:49.465Z,11.47
2019-03-13T21:33:19.253Z,10.37
2019-03-13T21:35:49.087Z,11.90
2019-03-13T21:38:18.919Z,10.97
2019-03-13T21:40:48.931Z,10.43
2019-03-13T21:43:19.001Z,10.63
2019-03-13T21:45:49.049Z,10.40
2019-03-13T21:48:19.013Z,9.93
2019-03-13T21:50:50.383Z,10.37
2019-03-13T21:53:20.405Z,11.13
2019-03-13T21:55:50.291Z,9.90
2019-03-13T21:58:20.183Z,10.43
2019-03-13T22:00:50.286Z,10.00
2019-03-13T22:03:28.719Z,10.80
2019-03-13T22:05:51.704Z,10.13
2019-03-13T22:08:21.480Z,10.77
2019-03-13T22:10:51.221Z,11.67
2019-03-13T22:13:21.149Z,11.40
2019-03-13T22:15:51.080Z,11.97
2019-03-13T22:18:20.878Z,11.67
2019-03-13T22:20:50.875Z,10.90
2019-03-13T22:23:20.905Z,11.10
2019-03-13T22:25:50.771Z,10.60
2019-03-13T22:28:20.621Z,11.13
2019-03-13T22:30:50.558Z,11.10
2019-03-13T22:33:20.630Z,10.43
2019-03-13T22:35:50.391Z,10.50
2019-03-13T22:38:20.279Z,10.37
2019-03-13T22:40:49.958Z,10.57
2019-03-13T22:43:19.719Z,9.97
2019-03-13T22:45:49.436Z,9.97
2019-03-13T22:48:19.389Z,11.10
2019-03-13T22:50:49.275Z,10.80
2019-03-13T22:53:19.095Z,10.77
2019-03-13T22:55:48.942Z,10.10
2019-03-13T22:58:18.694Z,10.43
2019-03-13T23:00:57.350Z,11.30
2019-03-13T23:03:28.652Z,10.87
2019-03-13T23:05:59.126Z,11.13
2019-03-13T23:08:31.147Z,10.67
2019-03-13T23:11:00.469Z,10.63
2019-03-13T23:13:30.303Z,9.53
2019-03-13T23:16:00.167Z,10.53
2019-03-13T23:18:30.141Z,9.80
2019-03-13T23:20:59.840Z,9.37
2019-03-13T23:23:29.813Z,9.80
2019-03-13T23:25:59.706Z,9.90
2019-03-13T23:28:29.681Z,9.30
2019-03-13T23:30:59.646Z,9.90
2019-03-13T23:33:29.541Z,10.60
2019-03-13T23:35:59.365Z,10.17
2019-03-13T23:38:30.412Z,9.67
2019-03-13T23:41:00.188Z,11.77
2019-03-13T23:43:30.023Z,11.37
2019-03-13T23:46:00.027Z,10.90
2019-03-13T23:48:29.857Z,10.10
2019-03-13T23:50:59.881Z,10.30
2019-03-13T23:53:29.785Z,11.00
2019-03-13T23:55:59.584Z,9.63
2019-03-13T23:58:29.668Z,10.27
